sensor_id;sensor_type;location;lat;lon;timestamp;P1;durP1;ratioP1;P2;durP2;ratioP2
54263;SDS011;40178;53.042;6.406;2023-07-22T00:00:59;11.43;;;5.18;;
54263;SDS011;40178;53.042;6.406;2023-07-22T00:03:25;10.35;;;5.05;;
54263;SDS011;40178;53.042;6.406;2023-07-22T00:06:01;13.40;;;5.60;;
54263;SDS011;40178;53.042;6.406;2023-07-22T00:08:31;10.02;;;5.30;;
54263;SDS011;40178;53.042;6.406;2023-07-22T00:11:00;10.20;;;4.53;;
54263;SDS011;40178;53.042;6.406;2023-07-22T00:13:26;11.00;;;5.05;;
54263;SDS011;40178;53.042;6.406;2023-07-22T00:15:53;8.88;;;4.13;;
54263;SDS011;40178;53.042;6.406;2023-07-22T00:18:19;11.48;;;4.80;;
54263;SDS011;40178;53.042;6.406;2023-07-22T00:20:44;10.48;;;4.68;;
54263;SDS011;40178;53.042;6.406;2023-07-22T00:23:10;12.48;;;5.22;;
54263;SDS011;40178;53.042;6.406;2023-07-22T00:25:36;11.60;;;4.55;;
54263;SDS011;40178;53.042;6.406;2023-07-22T00:28:01;9.35;;;4.28;;
54263;SDS011;40178;53.042;6.406;2023-07-22T00:30:27;10.40;;;4.75;;
54263;SDS011;40178;53.042;6.406;2023-07-22T00:32:53;11.32;;;4.78;;
54263;SDS011;40178;53.042;6.406;2023-07-22T00:35:19;10.45;;;4.45;;
54263;SDS011;40178;53.042;6.406;2023-07-22T00:37:44;9.93;;;4.78;;
54263;SDS011;40178;53.042;6.406;2023-07-22T00:40:10;11.45;;;5.07;;
54263;SDS011;40178;53.042;6.406;2023-07-22T00:42:37;10.73;;;4.88;;
54263;SDS011;40178;53.042;6.406;2023-07-22T00:45:03;11.80;;;5.18;;
54263;SDS011;40178;53.042;6.406;2023-07-22T00:47:30;11.32;;;4.18;;
54263;SDS011;40178;53.042;6.406;2023-07-22T00:49:58;9.88;;;4.47;;
54263;SDS011;40178;53.042;6.406;2023-07-22T00:52:26;8.55;;;4.13;;
54263;SDS011;40178;53.042;6.406;2023-07-22T00:54:52;8.27;;;4.15;;
54263;SDS011;40178;53.042;6.406;2023-07-22T00:57:18;10.40;;;4.50;;
54263;SDS011;40178;53.042;6.406;2023-07-22T00:59:44;8.45;;;4.65;;
54263;SDS011;40178;53.042;6.406;2023-07-22T01:02:10;9.20;;;4.40;;
54263;SDS011;40178;53.042;6.406;2023-07-22T01:04:36;10.07;;;3.85;;
54263;SDS011;40178;53.042;6.406;2023-07-22T01:07:03;10.68;;;4.00;;
54263;SDS011;40178;53.042;6.406;2023-07-22T01:09:38;9.45;;;4.50;;
54263;SDS011;40178;53.042;6.406;2023-07-22T01:12:05;8.88;;;4.30;;
54263;SDS011;40178;53.042;6.406;2023-07-22T01:14:32;8.65;;;4.70;;
54263;SDS011;40178;53.042;6.406;2023-07-22T01:17:00;10.32;;;4.32;;
54263;SDS011;40178;53.042;6.406;2023-07-22T01:19:26;9.82;;;4.50;;
54263;SDS011;40178;53.042;6.406;2023-07-22T01:21:53;9.50;;;4.22;;
54263;SDS011;40178;53.042;6.406;2023-07-22T01:24:19;9.68;;;4.50;;
54263;SDS011;40178;53.042;6.406;2023-07-22T01:26:45;9.30;;;4.28;;
54263;SDS011;40178;53.042;6.406;2023-07-22T01:29:12;8.88;;;4.03;;
54263;SDS011;40178;53.042;6.406;2023-07-22T01:31:38;10.07;;;4.15;;
54263;SDS011;40178;53.042;6.406;2023-07-22T01:34:04;11.50;;;4.43;;
54263;SDS011;40178;53.042;6.406;2023-07-22T01:36:30;10.00;;;4.85;;
54263;SDS011;40178;53.042;6.406;2023-07-22T01:38:56;8.85;;;4.45;;
54263;SDS011;40178;53.042;6.406;2023-07-22T01:41:21;8.32;;;4.10;;
54263;SDS011;40178;53.042;6.406;2023-07-22T01:43:48;10.02;;;5.10;;
54263;SDS011;40178;53.042;6.406;2023-07-22T01:46:14;8.73;;;3.67;;
54263;SDS011;40178;53.042;6.406;2023-07-22T01:48:39;9.43;;;5.13;;
54263;SDS011;40178;53.042;6.406;2023-07-22T01:51:05;9.93;;;3.97;;
54263;SDS011;40178;53.042;6.406;2023-07-22T01:53:30;11.60;;;4.55;;
54263;SDS011;40178;53.042;6.406;2023-07-22T01:55:57;10.23;;;4.43;;
54263;SDS011;40178;53.042;6.406;2023-07-22T01:58:22;8.07;;;3.70;;
54263;SDS011;40178;53.042;6.406;2023-07-22T02:00:51;9.82;;;4.10;;
54263;SDS011;40178;53.042;6.406;2023-07-22T02:03:17;8.75;;;3.92;;
54263;SDS011;40178;53.042;6.406;2023-07-22T02:05:42;8.18;;;3.58;;
54263;SDS011;40178;53.042;6.406;2023-07-22T02:08:08;10.05;;;4.47;;
54263;SDS011;40178;53.042;6.406;2023-07-22T02:10:35;9.95;;;4.50;;
54263;SDS011;40178;53.042;6.406;2023-07-22T02:13:01;10.60;;;5.40;;
54263;SDS011;40178;53.042;6.406;2023-07-22T02:15:28;9.27;;;4.75;;
54263;SDS011;40178;53.042;6.406;2023-07-22T02:17:53;9.07;;;4.35;;
54263;SDS011;40178;53.042;6.406;2023-07-22T02:20:20;8.98;;;4.47;;
54263;SDS011;40178;53.042;6.406;2023-07-22T02:22:45;9.30;;;4.15;;
54263;SDS011;40178;53.042;6.406;2023-07-22T02:25:11;7.43;;;3.75;;
54263;SDS011;40178;53.042;6.406;2023-07-22T02:27:37;9.65;;;3.53;;
54263;SDS011;40178;53.042;6.406;2023-07-22T02:30:05;9.32;;;3.60;;
54263;SDS011;40178;53.042;6.406;2023-07-22T02:32:33;7.22;;;3.30;;
54263;SDS011;40178;53.042;6.406;2023-07-22T02:34:59;7.78;;;3.20;;
54263;SDS011;40178;53.042;6.406;2023-07-22T02:37:25;7.78;;;3.80;;
54263;SDS011;40178;53.042;6.406;2023-07-22T02:39:50;9.70;;;3.97;;
54263;SDS011;40178;53.042;6.406;2023-07-22T02:42:16;7.40;;;3.75;;
54263;SDS011;40178;53.042;6.406;2023-07-22T02:44:41;9.05;;;4.20;;
54263;SDS011;40178;53.042;6.406;2023-07-22T02:47:07;10.13;;;3.90;;
54263;SDS011;40178;53.042;6.406;2023-07-22T02:49:33;10.57;;;4.70;;
54263;SDS011;40178;53.042;6.406;2023-07-22T02:51:59;14.63;;;4.90;;
54263;SDS011;40178;53.042;6.406;2023-07-22T02:54:24;8.13;;;3.47;;
54263;SDS011;40178;53.042;6.406;2023-07-22T02:56:50;8.02;;;4.03;;
54263;SDS011;40178;53.042;6.406;2023-07-22T02:59:16;10.30;;;4.15;;
54263;SDS011;40178;53.042;6.406;2023-07-22T03:01:42;9.52;;;4.28;;
54263;SDS011;40178;53.042;6.406;2023-07-22T03:04:07;10.77;;;4.68;;
54263;SDS011;40178;53.042;6.406;2023-07-22T03:06:33;9.93;;;4.55;;
54263;SDS011;40178;53.042;6.406;2023-07-22T03:08:58;10.43;;;5.22;;
54263;SDS011;40178;53.042;6.406;2023-07-22T03:11:24;9.38;;;4.38;;
54263;SDS011;40178;53.042;6.406;2023-07-22T03:13:50;10.48;;;4.78;;
54263;SDS011;40178;53.042;6.406;2023-07-22T03:16:16;11.45;;;4.38;;
54263;SDS011;40178;53.042;6.406;2023-07-22T03:18:42;9.43;;;5.18;;
54263;SDS011;40178;53.042;6.406;2023-07-22T03:21:08;10.90;;;4.90;;
54263;SDS011;40178;53.042;6.406;2023-07-22T03:23:34;10.80;;;4.78;;
54263;SDS011;40178;53.042;6.406;2023-07-22T03:25:59;9.85;;;4.97;;
54263;SDS011;40178;53.042;6.406;2023-07-22T03:28:25;9.95;;;4.50;;
54263;SDS011;40178;53.042;6.406;2023-07-22T03:30:51;8.98;;;4.30;;
54263;SDS011;40178;53.042;6.406;2023-07-22T03:33:17;9.88;;;4.80;;
54263;SDS011;40178;53.042;6.406;2023-07-22T03:35:43;9.23;;;3.85;;
54263;SDS011;40178;53.042;6.406;2023-07-22T03:38:09;9.15;;;3.65;;
54263;SDS011;40178;53.042;6.406;2023-07-22T03:40:35;9.15;;;3.92;;
54263;SDS011;40178;53.042;6.406;2023-07-22T03:43:00;10.18;;;4.28;;
54263;SDS011;40178;53.042;6.406;2023-07-22T03:45:27;9.65;;;4.03;;
54263;SDS011;40178;53.042;6.406;2023-07-22T03:47:57;8.45;;;3.92;;
54263;SDS011;40178;53.042;6.406;2023-07-22T03:50:23;9.13;;;4.75;;
54263;SDS011;40178;53.042;6.406;2023-07-22T03:52:49;9.80;;;4.45;;
54263;SDS011;40178;53.042;6.406;2023-07-22T03:55:15;11.10;;;5.55;;
54263;SDS011;40178;53.042;6.406;2023-07-22T03:57:40;10.65;;;4.57;;
54263;SDS011;40178;53.042;6.406;2023-07-22T04:00:06;10.88;;;5.20;;
54263;SDS011;40178;53.042;6.406;2023-07-22T04:02:35;10.13;;;4.97;;
54263;SDS011;40178;53.042;6.406;2023-07-22T04:05:01;12.48;;;4.95;;
54263;SDS011;40178;53.042;6.406;2023-07-22T04:07:26;11.73;;;5.55;;
54263;SDS011;40178;53.042;6.406;2023-07-22T04:09:52;12.02;;;5.50;;
54263;SDS011;40178;53.042;6.406;2023-07-22T04:12:17;11.45;;;5.38;;
54263;SDS011;40178;53.042;6.406;2023-07-22T04:14:43;13.45;;;5.15;;
54263;SDS011;40178;53.042;6.406;2023-07-22T04:17:09;11.77;;;5.18;;
54263;SDS011;40178;53.042;6.406;2023-07-22T04:19:34;10.95;;;4.45;;
54263;SDS011;40178;53.042;6.406;2023-07-22T04:22:00;11.02;;;5.13;;
54263;SDS011;40178;53.042;6.406;2023-07-22T04:24:29;11.07;;;4.90;;
54263;SDS011;40178;53.042;6.406;2023-07-22T04:26:56;10.00;;;4.40;;
54263;SDS011;40178;53.042;6.406;2023-07-22T04:29:22;10.15;;;4.88;;
54263;SDS011;40178;53.042;6.406;2023-07-22T04:31:47;11.02;;;5.22;;
54263;SDS011;40178;53.042;6.406;2023-07-22T04:34:13;11.07;;;5.40;;
54263;SDS011;40178;53.042;6.406;2023-07-22T04:36:39;10.48;;;4.90;;
54263;SDS011;40178;53.042;6.406;2023-07-22T04:39:04;9.02;;;4.50;;
54263;SDS011;40178;53.042;6.406;2023-07-22T04:41:30;9.27;;;4.10;;
54263;SDS011;40178;53.042;6.406;2023-07-22T04:43:56;10.90;;;4.50;;
54263;SDS011;40178;53.042;6.406;2023-07-22T04:46:23;9.85;;;4.60;;
54263;SDS011;40178;53.042;6.406;2023-07-22T04:48:54;9.95;;;4.95;;
54263;SDS011;40178;53.042;6.406;2023-07-22T04:51:21;10.57;;;4.70;;
54263;SDS011;40178;53.042;6.406;2023-07-22T04:53:47;17.52;;;5.28;;
54263;SDS011;40178;53.042;6.406;2023-07-22T04:56:12;11.20;;;4.60;;
54263;SDS011;40178;53.042;6.406;2023-07-22T04:58:38;15.25;;;6.05;;
54263;SDS011;40178;53.042;6.406;2023-07-22T05:01:04;9.50;;;4.43;;
54263;SDS011;40178;53.042;6.406;2023-07-22T05:03:29;13.88;;;5.32;;
54263;SDS011;40178;53.042;6.406;2023-07-22T05:05:55;11.90;;;5.50;;
54263;SDS011;40178;53.042;6.406;2023-07-22T05:08:22;10.77;;;5.30;;
54263;SDS011;40178;53.042;6.406;2023-07-22T05:10:48;11.45;;;5.75;;
54263;SDS011;40178;53.042;6.406;2023-07-22T05:13:14;12.93;;;5.97;;
54263;SDS011;40178;53.042;6.406;2023-07-22T05:15:39;12.77;;;6.03;;
54263;SDS011;40178;53.042;6.406;2023-07-22T05:18:05;12.82;;;5.63;;
54263;SDS011;40178;53.042;6.406;2023-07-22T05:20:30;15.25;;;6.45;;
54263;SDS011;40178;53.042;6.406;2023-07-22T05:22:57;14.57;;;6.85;;
54263;SDS011;40178;53.042;6.406;2023-07-22T05:25:23;14.25;;;6.38;;
54263;SDS011;40178;53.042;6.406;2023-07-22T05:27:49;13.43;;;6.40;;
54263;SDS011;40178;53.042;6.406;2023-07-22T05:30:14;13.13;;;6.30;;
54263;SDS011;40178;53.042;6.406;2023-07-22T05:32:40;14.95;;;7.00;;
54263;SDS011;40178;53.042;6.406;2023-07-22T05:35:06;14.00;;;7.07;;
54263;SDS011;40178;53.042;6.406;2023-07-22T05:37:31;15.55;;;7.45;;
54263;SDS011;40178;53.042;6.406;2023-07-22T05:39:57;15.10;;;7.07;;
54263;SDS011;40178;53.042;6.406;2023-07-22T05:42:23;15.13;;;7.28;;
54263;SDS011;40178;53.042;6.406;2023-07-22T05:44:49;14.07;;;7.15;;
54263;SDS011;40178;53.042;6.406;2023-07-22T05:47:15;14.82;;;6.80;;
54263;SDS011;40178;53.042;6.406;2023-07-22T05:49:40;15.02;;;7.47;;
54263;SDS011;40178;53.042;6.406;2023-07-22T05:52:06;18.13;;;7.70;;
54263;SDS011;40178;53.042;6.406;2023-07-22T05:54:32;14.63;;;7.13;;
54263;SDS011;40178;53.042;6.406;2023-07-22T05:56:57;15.82;;;7.00;;
54263;SDS011;40178;53.042;6.406;2023-07-22T05:59:23;16.25;;;7.72;;
54263;SDS011;40178;53.042;6.406;2023-07-22T06:01:49;14.40;;;7.10;;
54263;SDS011;40178;53.042;6.406;2023-07-22T06:04:14;14.02;;;7.85;;
54263;SDS011;40178;53.042;6.406;2023-07-22T06:06:40;15.70;;;7.63;;
54263;SDS011;40178;53.042;6.406;2023-07-22T06:09:05;15.27;;;8.40;;
54263;SDS011;40178;53.042;6.406;2023-07-22T06:11:31;14.00;;;7.20;;
54263;SDS011;40178;53.042;6.406;2023-07-22T06:13:57;12.38;;;6.93;;
54263;SDS011;40178;53.042;6.406;2023-07-22T06:16:22;14.48;;;7.68;;
54263;SDS011;40178;53.042;6.406;2023-07-22T06:18:48;13.25;;;7.25;;
54263;SDS011;40178;53.042;6.406;2023-07-22T06:21:14;14.35;;;8.18;;
54263;SDS011;40178;53.042;6.406;2023-07-22T06:23:39;17.20;;;7.75;;
54263;SDS011;40178;53.042;6.406;2023-07-22T06:26:05;15.32;;;8.00;;
54263;SDS011;40178;53.042;6.406;2023-07-22T06:28:31;15.60;;;7.78;;
54263;SDS011;40178;53.042;6.406;2023-07-22T06:30:57;14.00;;;8.02;;
54263;SDS011;40178;53.042;6.406;2023-07-22T06:33:22;13.00;;;7.65;;
54263;SDS011;40178;53.042;6.406;2023-07-22T06:35:48;14.43;;;7.80;;
54263;SDS011;40178;53.042;6.406;2023-07-22T06:38:14;13.55;;;7.03;;
54263;SDS011;40178;53.042;6.406;2023-07-22T06:40:40;13.05;;;7.32;;
54263;SDS011;40178;53.042;6.406;2023-07-22T06:43:05;13.50;;;6.82;;
54263;SDS011;40178;53.042;6.406;2023-07-22T06:45:31;16.15;;;7.32;;
54263;SDS011;40178;53.042;6.406;2023-07-22T06:47:57;12.27;;;7.20;;
54263;SDS011;40178;53.042;6.406;2023-07-22T06:50:23;15.07;;;6.85;;
54263;SDS011;40178;53.042;6.406;2023-07-22T06:52:49;15.48;;;7.57;;
54263;SDS011;40178;53.042;6.406;2023-07-22T06:55:15;14.00;;;7.32;;
54263;SDS011;40178;53.042;6.406;2023-07-22T06:57:40;17.35;;;7.45;;
54263;SDS011;40178;53.042;6.406;2023-07-22T07:00:06;14.32;;;7.90;;
54263;SDS011;40178;53.042;6.406;2023-07-22T07:02:34;12.73;;;7.25;;
54263;SDS011;40178;53.042;6.406;2023-07-22T07:05:01;13.98;;;7.20;;
54263;SDS011;40178;53.042;6.406;2023-07-22T07:07:26;13.85;;;7.38;;
54263;SDS011;40178;53.042;6.406;2023-07-22T07:09:52;14.88;;;7.40;;
54263;SDS011;40178;53.042;6.406;2023-07-22T07:12:18;13.80;;;7.20;;
54263;SDS011;40178;53.042;6.406;2023-07-22T07:14:43;13.65;;;7.28;;
54263;SDS011;40178;53.042;6.406;2023-07-22T07:17:09;13.73;;;7.55;;
54263;SDS011;40178;53.042;6.406;2023-07-22T07:19:34;15.30;;;7.10;;
54263;SDS011;40178;53.042;6.406;2023-07-22T07:22:00;13.07;;;7.63;;
54263;SDS011;40178;53.042;6.406;2023-07-22T07:24:26;13.02;;;6.80;;
54263;SDS011;40178;53.042;6.406;2023-07-22T07:26:52;12.48;;;7.03;;
54263;SDS011;40178;53.042;6.406;2023-07-22T07:29:18;13.60;;;6.57;;
54263;SDS011;40178;53.042;6.406;2023-07-22T07:31:43;13.38;;;6.70;;
54263;SDS011;40178;53.042;6.406;2023-07-22T07:34:09;12.23;;;6.60;;
54263;SDS011;40178;53.042;6.406;2023-07-22T07:36:34;12.57;;;6.50;;
54263;SDS011;40178;53.042;6.406;2023-07-22T07:39:00;10.10;;;5.53;;
54263;SDS011;40178;53.042;6.406;2023-07-22T07:41:26;9.25;;;5.68;;
54263;SDS011;40178;53.042;6.406;2023-07-22T07:43:51;9.85;;;6.10;;
54263;SDS011;40178;53.042;6.406;2023-07-22T07:51:19;8.25;;;4.70;;
54263;SDS011;40178;53.042;6.406;2023-07-22T07:53:46;9.40;;;5.00;;
54263;SDS011;40178;53.042;6.406;2023-07-22T07:56:12;10.48;;;4.93;;
54263;SDS011;40178;53.042;6.406;2023-07-22T07:58:38;8.38;;;4.32;;
54263;SDS011;40178;53.042;6.406;2023-07-22T08:01:04;9.90;;;5.03;;
54263;SDS011;40178;53.042;6.406;2023-07-22T08:03:30;8.45;;;4.88;;
54263;SDS011;40178;53.042;6.406;2023-07-22T08:05:57;9.55;;;4.75;;
54263;SDS011;40178;53.042;6.406;2023-07-22T08:08:22;9.00;;;5.03;;
54263;SDS011;40178;53.042;6.406;2023-07-22T08:10:58;9.82;;;5.05;;
54263;SDS011;40178;53.042;6.406;2023-07-22T08:13:30;8.70;;;4.97;;
54263;SDS011;40178;53.042;6.406;2023-07-22T08:15:58;9.63;;;5.05;;
54263;SDS011;40178;53.042;6.406;2023-07-22T08:18:25;11.40;;;4.95;;
54263;SDS011;40178;53.042;6.406;2023-07-22T08:20:51;9.80;;;4.93;;
54263;SDS011;40178;53.042;6.406;2023-07-22T08:23:18;8.45;;;4.72;;
54263;SDS011;40178;53.042;6.406;2023-07-22T08:25:44;8.57;;;4.70;;
54263;SDS011;40178;53.042;6.406;2023-07-22T08:28:12;7.80;;;4.30;;
54263;SDS011;40178;53.042;6.406;2023-07-22T08:30:42;9.95;;;4.80;;
54263;SDS011;40178;53.042;6.406;2023-07-22T08:33:08;7.63;;;4.35;;
54263;SDS011;40178;53.042;6.406;2023-07-22T08:35:34;11.05;;;4.45;;
54263;SDS011;40178;53.042;6.406;2023-07-22T08:38:01;8.90;;;4.55;;
54263;SDS011;40178;53.042;6.406;2023-07-22T08:40:32;9.00;;;4.20;;
54263;SDS011;40178;53.042;6.406;2023-07-22T08:43:02;8.77;;;4.50;;
54263;SDS011;40178;53.042;6.406;2023-07-22T08:45:29;9.55;;;5.40;;
54263;SDS011;40178;53.042;6.406;2023-07-22T08:48:03;11.90;;;5.30;;
54263;SDS011;40178;53.042;6.406;2023-07-22T08:56:18;10.88;;;5.22;;
54263;SDS011;40178;53.042;6.406;2023-07-22T08:58:44;8.93;;;4.97;;
54263;SDS011;40178;53.042;6.406;2023-07-22T09:01:11;11.48;;;6.22;;
54263;SDS011;40178;53.042;6.406;2023-07-22T09:03:36;10.93;;;5.85;;
54263;SDS011;40178;53.042;6.406;2023-07-22T09:06:04;10.73;;;5.78;;
54263;SDS011;40178;53.042;6.406;2023-07-22T09:08:30;11.20;;;6.03;;
54263;SDS011;40178;53.042;6.406;2023-07-22T09:10:56;10.40;;;5.88;;
54263;SDS011;40178;53.042;6.406;2023-07-22T09:13:22;13.25;;;6.13;;
54263;SDS011;40178;53.042;6.406;2023-07-22T09:15:49;11.48;;;6.75;;
54263;SDS011;40178;53.042;6.406;2023-07-22T09:18:21;14.23;;;7.55;;
54263;SDS011;40178;53.042;6.406;2023-07-22T09:20:47;13.65;;;7.50;;
54263;SDS011;40178;53.042;6.406;2023-07-22T09:23:13;15.40;;;8.30;;
54263;SDS011;40178;53.042;6.406;2023-07-22T09:25:39;15.05;;;8.77;;
54263;SDS011;40178;53.042;6.406;2023-07-22T09:28:06;14.82;;;8.40;;
54263;SDS011;40178;53.042;6.406;2023-07-22T09:30:37;13.95;;;8.88;;
54263;SDS011;40178;53.042;6.406;2023-07-22T09:33:05;12.18;;;7.20;;
54263;SDS011;40178;53.042;6.406;2023-07-22T09:38:14;10.07;;;6.20;;
54263;SDS011;40178;53.042;6.406;2023-07-22T09:40:42;12.70;;;6.68;;
54263;SDS011;40178;53.042;6.406;2023-07-22T09:43:09;11.13;;;6.55;;
54263;SDS011;40178;53.042;6.406;2023-07-22T09:45:37;9.90;;;6.18;;
54263;SDS011;40178;53.042;6.406;2023-07-22T09:48:03;10.05;;;5.53;;
54263;SDS011;40178;53.042;6.406;2023-07-22T09:50:29;7.90;;;4.97;;
54263;SDS011;40178;53.042;6.406;2023-07-22T09:52:55;8.55;;;4.95;;
54263;SDS011;40178;53.042;6.406;2023-07-22T09:55:27;7.70;;;4.53;;
54263;SDS011;40178;53.042;6.406;2023-07-22T09:57:58;7.68;;;4.38;;
54263;SDS011;40178;53.042;6.406;2023-07-22T10:00:28;6.80;;;3.65;;
54263;SDS011;40178;53.042;6.406;2023-07-22T10:02:56;6.13;;;3.00;;
54263;SDS011;40178;53.042;6.406;2023-07-22T10:05:23;6.20;;;3.63;;
54263;SDS011;40178;53.042;6.406;2023-07-22T10:07:51;5.97;;;3.35;;
54263;SDS011;40178;53.042;6.406;2023-07-22T10:10:20;5.40;;;3.05;;
54263;SDS011;40178;53.042;6.406;2023-07-22T10:12:48;4.63;;;2.53;;
54263;SDS011;40178;53.042;6.406;2023-07-22T10:15:15;6.15;;;3.17;;
54263;SDS011;40178;53.042;6.406;2023-07-22T10:17:42;7.88;;;3.97;;
54263;SDS011;40178;53.042;6.406;2023-07-22T10:20:09;5.95;;;3.05;;
54263;SDS011;40178;53.042;6.406;2023-07-22T10:22:40;5.90;;;3.00;;
54263;SDS011;40178;53.042;6.406;2023-07-22T10:25:14;8.00;;;3.47;;
54263;SDS011;40178;53.042;6.406;2023-07-22T10:27:41;7.20;;;3.13;;
54263;SDS011;40178;53.042;6.406;2023-07-22T10:32:40;7.20;;;3.75;;
54263;SDS011;40178;53.042;6.406;2023-07-22T10:38:07;7.18;;;3.88;;
54263;SDS011;40178;53.042;6.406;2023-07-22T10:40:44;8.45;;;4.88;;
54263;SDS011;40178;53.042;6.406;2023-07-22T10:43:16;7.75;;;4.47;;
54263;SDS011;40178;53.042;6.406;2023-07-22T10:45:43;7.80;;;4.50;;
54263;SDS011;40178;53.042;6.406;2023-07-22T10:48:27;7.40;;;4.78;;
54263;SDS011;40178;53.042;6.406;2023-07-22T10:51:07;7.53;;;4.28;;
54263;SDS011;40178;53.042;6.406;2023-07-22T10:53:56;10.77;;;4.45;;
54263;SDS011;40178;53.042;6.406;2023-07-22T10:56:28;8.25;;;4.50;;
54263;SDS011;40178;53.042;6.406;2023-07-22T10:58:56;8.02;;;4.50;;
54263;SDS011;40178;53.042;6.406;2023-07-22T11:01:35;9.05;;;5.15;;
54263;SDS011;40178;53.042;6.406;2023-07-22T11:04:09;7.50;;;4.53;;
54263;SDS011;40178;53.042;6.406;2023-07-22T11:06:36;10.77;;;5.45;;
54263;SDS011;40178;53.042;6.406;2023-07-22T11:09:03;8.95;;;4.93;;
54263;SDS011;40178;53.042;6.406;2023-07-22T11:11:37;9.52;;;5.90;;
54263;SDS011;40178;53.042;6.406;2023-07-22T11:14:16;8.68;;;5.57;;
54263;SDS011;40178;53.042;6.406;2023-07-22T11:16:44;9.38;;;6.05;;
54263;SDS011;40178;53.042;6.406;2023-07-22T11:19:12;10.40;;;6.82;;
54263;SDS011;40178;53.042;6.406;2023-07-22T11:21:45;9.43;;;6.20;;
54263;SDS011;40178;53.042;6.406;2023-07-22T11:24:13;10.93;;;7.22;;
54263;SDS011;40178;53.042;6.406;2023-07-22T11:26:39;12.32;;;7.30;;
54263;SDS011;40178;53.042;6.406;2023-07-22T11:29:06;11.32;;;7.47;;
54263;SDS011;40178;53.042;6.406;2023-07-22T11:31:33;11.27;;;7.20;;
54263;SDS011;40178;53.042;6.406;2023-07-22T11:34:01;11.50;;;6.95;;
54263;SDS011;40178;53.042;6.406;2023-07-22T11:36:27;14.35;;;8.68;;
54263;SDS011;40178;53.042;6.406;2023-07-22T11:38:53;11.68;;;7.18;;
54263;SDS011;40178;53.042;6.406;2023-07-22T11:41:25;13.30;;;7.82;;
54263;SDS011;40178;53.042;6.406;2023-07-22T11:43:51;12.48;;;8.32;;
54263;SDS011;40178;53.042;6.406;2023-07-22T11:46:17;13.77;;;8.70;;
54263;SDS011;40178;53.042;6.406;2023-07-22T11:48:50;11.05;;;7.80;;
54263;SDS011;40178;53.042;6.406;2023-07-22T11:51:17;12.13;;;7.78;;
54263;SDS011;40178;53.042;6.406;2023-07-22T11:53:48;11.63;;;8.38;;
54263;SDS011;40178;53.042;6.406;2023-07-22T11:56:21;10.20;;;7.38;;
54263;SDS011;40178;53.042;6.406;2023-07-22T11:58:58;12.10;;;7.78;;
54263;SDS011;40178;53.042;6.406;2023-07-22T12:01:23;12.20;;;7.60;;
54263;SDS011;40178;53.042;6.406;2023-07-22T12:03:57;10.73;;;7.45;;
54263;SDS011;40178;53.042;6.406;2023-07-22T12:06:29;10.18;;;7.10;;
54263;SDS011;40178;53.042;6.406;2023-07-22T12:08:56;10.20;;;6.68;;
54263;SDS011;40178;53.042;6.406;2023-07-22T12:11:23;8.23;;;6.07;;
54263;SDS011;40178;53.042;6.406;2023-07-22T12:14:11;8.77;;;6.35;;
54263;SDS011;40178;53.042;6.406;2023-07-22T12:16:37;10.90;;;6.53;;
54263;SDS011;40178;53.042;6.406;2023-07-22T12:19:04;8.60;;;6.10;;
54263;SDS011;40178;53.042;6.406;2023-07-22T12:21:30;10.13;;;5.13;;
54263;SDS011;40178;53.042;6.406;2023-07-22T12:23:56;9.65;;;5.22;;
54263;SDS011;40178;53.042;6.406;2023-07-22T12:26:22;10.20;;;6.03;;
54263;SDS011;40178;53.042;6.406;2023-07-22T12:28:48;9.82;;;5.75;;
54263;SDS011;40178;53.042;6.406;2023-07-22T12:31:13;11.40;;;6.60;;
54263;SDS011;40178;53.042;6.406;2023-07-22T12:33:39;12.65;;;6.57;;
54263;SDS011;40178;53.042;6.406;2023-07-22T12:36:05;10.27;;;6.57;;
54263;SDS011;40178;53.042;6.406;2023-07-22T12:38:31;14.15;;;6.70;;
54263;SDS011;40178;53.042;6.406;2023-07-22T12:40:56;11.13;;;7.35;;
54263;SDS011;40178;53.042;6.406;2023-07-22T12:43:22;11.60;;;7.25;;
54263;SDS011;40178;53.042;6.406;2023-07-22T12:45:48;11.25;;;7.28;;
54263;SDS011;40178;53.042;6.406;2023-07-22T12:48:13;13.32;;;7.68;;
54263;SDS011;40178;53.042;6.406;2023-07-22T12:50:39;12.13;;;7.38;;
54263;SDS011;40178;53.042;6.406;2023-07-22T12:53:05;13.85;;;7.90;;
54263;SDS011;40178;53.042;6.406;2023-07-22T12:55:30;12.38;;;7.90;;
54263;SDS011;40178;53.042;6.406;2023-07-22T12:57:56;11.23;;;7.85;;
54263;SDS011;40178;53.042;6.406;2023-07-22T13:00:21;12.27;;;7.88;;
54263;SDS011;40178;53.042;6.406;2023-07-22T13:02:47;12.80;;;7.82;;
54263;SDS011;40178;53.042;6.406;2023-07-22T13:05:13;10.27;;;7.03;;
54263;SDS011;40178;53.042;6.406;2023-07-22T13:07:39;12.15;;;7.57;;
54263;SDS011;40178;53.042;6.406;2023-07-22T13:10:05;12.55;;;8.32;;
54263;SDS011;40178;53.042;6.406;2023-07-22T13:12:35;11.75;;;7.35;;
54263;SDS011;40178;53.042;6.406;2023-07-22T13:15:02;12.90;;;7.57;;
54263;SDS011;40178;53.042;6.406;2023-07-22T13:17:28;12.52;;;7.07;;
54263;SDS011;40178;53.042;6.406;2023-07-22T13:19:53;13.65;;;7.78;;
54263;SDS011;40178;53.042;6.406;2023-07-22T13:22:19;11.50;;;7.28;;
54263;SDS011;40178;53.042;6.406;2023-07-22T13:24:44;14.85;;;7.57;;
54263;SDS011;40178;53.042;6.406;2023-07-22T13:27:10;11.15;;;7.13;;
54263;SDS011;40178;53.042;6.406;2023-07-22T13:29:36;12.63;;;6.57;;
54263;SDS011;40178;53.042;6.406;2023-07-22T13:32:01;11.38;;;7.40;;
54263;SDS011;40178;53.042;6.406;2023-07-22T13:34:27;11.50;;;6.45;;
54263;SDS011;40178;53.042;6.406;2023-07-22T13:36:53;11.43;;;6.55;;
54263;SDS011;40178;53.042;6.406;2023-07-22T13:39:19;10.63;;;6.38;;
54263;SDS011;40178;53.042;6.406;2023-07-22T13:41:44;11.50;;;6.70;;
54263;SDS011;40178;53.042;6.406;2023-07-22T13:44:10;10.68;;;6.45;;
54263;SDS011;40178;53.042;6.406;2023-07-22T13:46:36;10.80;;;6.63;;
54263;SDS011;40178;53.042;6.406;2023-07-22T13:49:01;9.45;;;6.22;;
54263;SDS011;40178;53.042;6.406;2023-07-22T13:51:27;7.97;;;5.55;;
54263;SDS011;40178;53.042;6.406;2023-07-22T13:53:52;11.25;;;6.18;;
54263;SDS011;40178;53.042;6.406;2023-07-22T13:56:19;11.07;;;6.35;;
54263;SDS011;40178;53.042;6.406;2023-07-22T13:58:45;11.57;;;5.50;;
54263;SDS011;40178;53.042;6.406;2023-07-22T14:01:11;9.85;;;5.78;;
54263;SDS011;40178;53.042;6.406;2023-07-22T14:03:38;10.30;;;4.88;;
54263;SDS011;40178;53.042;6.406;2023-07-22T14:06:04;9.98;;;4.75;;
54263;SDS011;40178;53.042;6.406;2023-07-22T14:08:29;8.43;;;4.05;;
54263;SDS011;40178;53.042;6.406;2023-07-22T14:10:55;8.52;;;4.05;;
54263;SDS011;40178;53.042;6.406;2023-07-22T14:13:20;7.70;;;4.20;;
54263;SDS011;40178;53.042;6.406;2023-07-22T14:15:46;10.48;;;4.78;;
54263;SDS011;40178;53.042;6.406;2023-07-22T14:18:11;10.43;;;4.03;;
54263;SDS011;40178;53.042;6.406;2023-07-22T14:20:42;7.65;;;3.42;;
54263;SDS011;40178;53.042;6.406;2023-07-22T14:23:08;7.95;;;3.67;;
54263;SDS011;40178;53.042;6.406;2023-07-22T14:25:33;7.20;;;3.60;;
54263;SDS011;40178;53.042;6.406;2023-07-22T14:27:59;9.80;;;3.92;;
54263;SDS011;40178;53.042;6.406;2023-07-22T14:30:25;6.18;;;3.30;;
54263;SDS011;40178;53.042;6.406;2023-07-22T14:32:50;8.60;;;3.80;;
54263;SDS011;40178;53.042;6.406;2023-07-22T14:35:16;7.25;;;3.83;;
54263;SDS011;40178;53.042;6.406;2023-07-22T14:37:41;6.22;;;3.08;;
54263;SDS011;40178;53.042;6.406;2023-07-22T14:40:07;5.72;;;2.80;;
54263;SDS011;40178;53.042;6.406;2023-07-22T14:42:36;5.63;;;3.00;;
54263;SDS011;40178;53.042;6.406;2023-07-22T14:45:02;5.95;;;3.00;;
54263;SDS011;40178;53.042;6.406;2023-07-22T14:47:27;7.30;;;3.47;;
54263;SDS011;40178;53.042;6.406;2023-07-22T14:49:53;6.03;;;2.10;;
54263;SDS011;40178;53.042;6.406;2023-07-22T14:52:19;5.20;;;1.80;;
54263;SDS011;40178;53.042;6.406;2023-07-22T14:54:44;5.60;;;1.63;;
54263;SDS011;40178;53.042;6.406;2023-07-22T14:57:10;6.13;;;2.78;;